Logo AVAMET
Benvolgut visitant, si us plau, ingressa Recuperar contrasenya
AVAMET paisatges

Xàbia Bevenguts- Heliport Xàbia

Dades diàries. Acumulats / Últims 30 dies disponibles

Data Temperatura (°C) Humitat rel. (%) Pressió rel. (hPa) Vent (km/h) Precipitació
Mínima Mitjana Màxima Amplitud
tèrmica
Mínima Mitjana Màxima Mínima Mitjana Màxima Predom. Mitjana Ràfega
màxima
Total
(mm)
Índex-n
Mínima Mitjana Màxima Mínima Mitjana Màxima n
0 a 1
P0 max
mm 5'
Dades mensuals acumulades fins l'últim dia disponible
12/2020 8,3 8,3 8,3 12,6 18,6 18,6 18,6 10,3 67 88 96 1.017 1.022 1.026   4,8 16,1 0,2
Dades anuals acumulades fins l'últim dia disponible
2020 2,7 13,8 25,2 19,1 13,3 24,3 35,2 32,5 16 76 97 995 1.020 1.037   8,5 85,3 497,6
Últims 30 dies disponibles
01-12-2020 8,3     12,6     18,6 10,3 67 88 96 1.017 1.022 1.026 WNW 4,8 16,1 0,2
30-11-2020 8,1     12,7     18,7 10,6 74 88 95 1.023 1.025 1.026 SO 6,1 17,7 0,0
29-11-2020 10,6     14,8     19,6 9,0 68 79 94 1.014 1.018 1.023 WNW 7,9 27,4 0,0
28-11-2020 11,6     12,9     14,8 3,2 70 91 96 1.006 1.008 1.013 WNW 11,4 35,4 24,2
27-11-2020 12,4     16,7     19,9 7,5 63 84 95 1.006 1.010 1.014 SE 10,8 37,0 13,8
26-11-2020 10,9     15,1     19,5 8,6 73 88 95 1.014 1.016 1.018 WNW 5,0 19,3 0,0
25-11-2020 6,6     12,2     18,7 12,1 66 84 95 1.017 1.020 1.023 WNW 7,2 30,6 0,0
24-11-2020 6,4     12,4     17,8 11,4 66 82 93 1.023 1.026 1.029 SW 10,1 35,4 0,0
23-11-2020 6,7     10,8     17,4 10,7 68 85 95 1.029 1.030 1.032 WNW 6,3 17,7 0,0
22-11-2020 7,2     11,3     17,6 10,4 62 84 94 1.029 1.031 1.032 WNW 6,4 24,1 0,0
21-11-2020 6,9     12,8     18,8 11,9 60 79 94 1.029 1.031 1.032 WNW 7,9 22,5 0,0
20-11-2020 8,4     12,7     19,1 10,7 59 83 95 1.029 1.030 1.032 W 6,9 24,1 0,2
19-11-2020 10,8     15,6     21,2 10,4 72 90 97 1.030 1.032 1.033 WNW 5,6 27,4 0,0
18-11-2020 12,4     15,8     19,8 7,4 81 92 96 1.029 1.030 1.031 WNW 3,9 14,5 0,0
17-11-2020 14,4     17,4     21,2 6,8 77 88 95 1.027 1.029 1.030 WNW 6,0 24,1 0,0
16-11-2020 14,8     18,7     24,7 9,9 59 81 93 1.021 1.024 1.028 W 7,4 38,6 0,0
15-11-2020 12,4     18,1     24,6 12,2 52 80 96 1.022 1.023 1.024 WNW 5,3 22,5 0,0
14-11-2020 13,1     16,1     19,7 6,6 81 92 96 1.023 1.024 1.025 WNW 3,9 14,5 0,0
13-11-2020 14,9     16,9     20,1 5,2 77 88 95 1.023 1.023 1.024 WNW 9,3 32,2 0,0
12-11-2020 10,1     14,5     19,6 9,5 78 90 96 1.024 1.025 1.027 WNW 5,8 17,7 0,2
11-11-2020 10,8     14,7     20,1 9,3 75 88 96 1.026 1.028 1.030 WNW 5,3 17,7 0,0
10-11-2020 11,2     15,6     21,3 10,1 64 85 97 1.026 1.028 1.030 WNW 6,0 22,5 0,2
09-11-2020 10,4     14,8     20,9 10,5 72 87 95 1.024 1.024 1.026 WNW 5,0 16,1 0,0
08-11-2020 10,1     14,9     21,3 11,2 61 83 96 1.024 1.025 1.027 W 5,3 17,7 0,2
07-11-2020 12,9     18,4     22,3 9,4 71 88 95 1.018 1.022 1.027 WNW 6,6 35,4 11,8 0,18 4,20
06-11-2020 18,0     20,1     23,1 5,1 83 92 95 1.020 1.022 1.024 WNW 7,1 24,1 0,0
05-11-2020 14,4     19,2     21,0 6,6 86 90 96 1.021 1.023 1.025 E 16,1 69,2 47,2 0,38 9,60
04-11-2020 14,2     16,2     19,2 5,0 84 91 95 1.020 1.022 1.026 WNW 12,7 41,8 105,0 0,57 18,90
03-11-2020 12,3     18,1     22,3 10,0 76 86 96 1.025 1.026 1.027 NE 7,6 30,6 0,0
02-11-2020 10,6     16,7     23,7 13,1 68 87 97 1.023 1.025 1.026 WNW 5,8 27,4 0,2
Últims 13 mesos disponibles
10/2020 7,4 11,6 17,1 18,1 19,6 23,9 30,3 22,9 49 69 88 1.001 1.020 1.028 WNW 8,3 67,6 10,6
09/2020 11,8 17,6 20,9 22,8 24,4 27,7 30,9 19,1 40 73 85 1.013 1.019 1.026 WNW 8,2 51,5 8,2
08/2020 16,8 20,6 24,8 26,3 24,9 31,1 35,2 18,4 61 75 83 1.006 1.016 1.021 WNW 8,9 61,2 41,0
07/2020 18,0 21,1 25,2 25,9 27,8 30,2 33,6 15,6 62 75 83 1.013 1.018 1.023 WNW 9,2 45,1 1,6
06/2020 12,3 16,9 19,9 22,4 20,5 27,2 30,9 18,6 46 76 86 1.007 1.017 1.023 WNW 9,0 54,7 26,0
05/2020 9,4 14,6 18,7 20,3 21,6 25,5 29,8 20,4 52 73 85 1.008 1.019 1.029 WNW 9,1 48,3 10,0
04/2020 7,6 11,1 15,7 15,5 16,2 20,0 25,9 18,3 59 81 93 1.008 1.018 1.028 WNW 8,2 51,5 48,0
03/2020 4,7 9,7 14,0 14,5 13,3 19,2 26,1 21,4 43 73 93 1.009 1.019 1.028 WNW 10,9 75,6 71,2
02/2020 3,3 6,7 12,3 13,3 15,0 20,0 28,4 25,1 51 77 89 1.016 1.028 1.035 WNW 6,1 41,8 1,6
01/2020 2,7 7,1 11,4 12,4 13,8 18,1 22,9 20,2 61 78 90 1.017 1.023 1.031 WNW 8,6 85,3 76,0
Tots els anys disponibles
Temperatura (°C)
Humitat relativa (%)
Velocitat del vent i ràfega màxima (km/h)
Direcció del vent (°)
Pressió (hPa)
Precipitació (mm)
Nota sobre les dades: s'avisa a l'usuari de la provisionalitat i no oficialitat d'aquestes dades
Logo AVAMET blanc
Web allotjada a Sollutia
Llicència de Creative CommonsLa web d'AVAMET i els seus continguts estan subjectes a una llicència de
Reconeixement - No Comercial - Compartir igual
Avís legal - Política de privacitat - Política de cookies
NOVES ESTACIONS: València - l'Olivereta (Soci), Xixona - Carrasqueta/Bugaia (Soci), l'Alcúdia de Crespins/Canals - la Muntanyeta (Soci), Utiel - est (Soci), Xàbia - Cansalades (Soci), Alginet (Soci), Quatretondeta (Ajuntament Soci) Enguera - Benali (Soci/ADENE), la Vall d'Alba - sud (Ajuntament Soci), El Fondó dels Frares (Estació pròpia d'AVAMET nº34) - - -